Time;durP1;ratioP1;P1;durP2;ratioP2;P2;SDS_P1;SDS_P2;PMS_P1;PMS_P2;Temp;Humidity;BMP_temperature;BMP_pressure;BME280_temperature;BME280_humidity;BME280_pressure;Samples;Min_cycle;Max_cycle;Signal;HPM_P1;HPM_P2
2021/06/21 00:00:56;;;;;;;10.15;1.75;;;17.70;96.20;;;;;;5042049;28;20025;-91
2021/06/21 00:03:22;;;;;;;14.43;1.70;;;17.70;96.20;;;;;;5040803;28;20033;-93
2021/06/21 00:05:48;;;;;;;6.28;1.60;;;17.70;96.00;;;;;;5044042;28;20037;-92
2021/06/21 00:08:14;;;;;;;9.18;1.70;;;17.60;96.10;;;;;;5049511;28;20039;-92
2021/06/21 00:10:40;;;;;;;5.35;1.45;;;17.60;96.20;;;;;;5043637;28;20104;-92
2021/06/21 00:13:06;;;;;;;7.05;1.45;;;17.60;96.30;;;;;;5046256;28;20082;-93
2021/06/21 00:15:31;;;;;;;3.63;1.08;;;17.60;96.30;;;;;;5039474;28;20055;-91
2021/06/21 00:17:57;;;;;;;10.60;1.75;;;17.60;96.40;;;;;;5050949;28;20041;-92
2021/06/21 00:20:25;;;;;;;9.75;1.52;;;17.60;96.30;;;;;;5037246;28;20036;-92
2021/06/21 00:22:53;;;;;;;6.57;1.50;;;17.60;96.40;;;;;;5034974;28;20037;-92
2021/06/21 00:25:20;;;;;;;5.07;1.38;;;17.60;96.20;;;;;;5046780;28;20452;-92
2021/06/21 00:27:46;;;;;;;4.60;1.42;;;17.60;96.30;;;;;;5051020;28;20024;-92
2021/06/21 00:30:14;;;;;;;5.65;1.40;;;17.50;96.30;;;;;;5049559;28;20025;-91
2021/06/21 00:32:41;;;;;;;4.45;1.33;;;17.50;96.30;;;;;;5040262;28;20085;-92
2021/06/21 00:35:09;;;;;;;7.85;1.83;;;17.50;96.40;;;;;;5042362;28;20033;-91
2021/06/21 00:37:35;;;;;;;7.70;1.70;;;17.50;96.40;;;;;;5042821;28;20026;-92
2021/06/21 00:40:02;;;;;;;4.13;1.42;;;17.50;96.40;;;;;;5045203;28;20035;-92
2021/06/21 00:42:28;;;;;;;12.57;1.80;;;17.40;96.30;;;;;;5044848;28;20033;-91
2021/06/21 00:44:54;;;;;;;12.63;1.90;;;17.40;96.40;;;;;;5040221;28;20116;-91
2021/06/21 00:47:20;;;;;;;6.30;1.55;;;17.30;96.30;;;;;;5046944;28;20028;-92
2021/06/21 00:49:45;;;;;;;11.00;1.83;;;17.30;96.30;;;;;;5031144;28;20029;-92
2021/06/21 00:52:16;;;;;;;9.20;1.90;;;17.20;96.40;;;;;;5036921;28;20025;-92
2021/06/21 00:54:43;;;;;;;6.80;2.08;;;17.20;96.40;;;;;;5034437;28;20477;-92
2021/06/21 00:57:09;;;;;;;14.15;1.85;;;17.20;96.60;;;;;;5045150;28;20035;-91
2021/06/21 00:59:35;;;;;;;6.82;1.52;;;17.20;97.00;;;;;;5046543;28;20812;-92
2021/06/21 01:02:00;;;;;;;6.35;1.52;;;17.20;96.80;;;;;;5040942;28;20033;-92
2021/06/21 01:04:26;;;;;;;5.60;1.80;;;17.20;96.90;;;;;;5044523;28;20691;-92
2021/06/21 01:06:52;;;;;;;4.70;1.40;;;17.20;96.90;;;;;;5049793;28;20079;-92
2021/06/21 01:09:18;;;;;;;4.70;1.67;;;17.20;97.00;;;;;;5043680;28;20036;-93
2021/06/21 01:12:12;;;;;;;7.68;1.55;;;17.20;97.10;;;;;;5049931;28;20489;-92
2021/06/21 01:14:43;;;;;;;4.15;1.30;;;17.30;97.10;;;;;;5062389;28;20029;-91
2021/06/21 01:17:38;;;;;;;4.43;1.10;;;17.30;97.10;;;;;;5054162;28;20481;-92
2021/06/21 01:20:44;;;;;;;7.28;1.67;;;17.30;97.00;;;;;;5065636;28;20392;-92
2021/06/21 01:23:25;;;;;;;4.90;1.30;;;17.30;97.10;;;;;;5053617;28;20035;-92
2021/06/21 01:26:22;;;;;;;6.47;1.65;;;17.30;97.10;;;;;;5070926;28;20518;-92
2021/06/21 01:29:26;;;;;;;4.93;1.23;;;17.30;97.10;;;;;;4970462;28;20045;-92
2021/06/21 01:32:03;;;;;;;6.60;1.70;;;17.30;97.10;;;;;;5051154;28;20477;-91
2021/06/21 01:34:30;;;;;;;5.63;1.70;;;17.20;97.10;;;;;;5047350;28;20040;-91
2021/06/21 01:37:00;;;;;;;6.15;1.83;;;17.20;97.40;;;;;;5040613;28;20025;-91
2021/06/21 01:39:28;;;;;;;8.02;1.63;;;17.20;97.20;;;;;;5047380;28;20057;-92
2021/06/21 01:42:01;;;;;;;5.65;1.45;;;17.20;97.20;;;;;;5051855;28;20029;-91
2021/06/21 01:44:30;;;;;;;8.35;1.52;;;17.20;97.30;;;;;;5048862;28;20037;-91
2021/06/21 01:46:58;;;;;;;9.93;1.55;;;17.30;97.40;;;;;;5049813;28;20045;-92
2021/06/21 01:49:27;;;;;;;6.05;1.17;;;17.30;97.30;;;;;;5053302;28;20037;-92
2021/06/21 01:51:56;;;;;;;7.53;1.30;;;17.30;97.20;;;;;;5047364;28;20536;-92
2021/06/21 01:54:26;;;;;;;4.15;1.20;;;17.30;97.50;;;;;;5043442;28;20486;-92
2021/06/21 01:56:53;;;;;;;7.22;1.20;;;17.30;97.30;;;;;;5047035;28;20028;-91
2021/06/21 01:59:19;;;;;;;4.22;1.08;;;17.30;97.40;;;;;;5053570;28;20025;-91
2021/06/21 02:01:46;;;;;;;5.80;1.05;;;17.30;97.40;;;;;;5052637;28;20060;-91
2021/06/21 02:04:14;;;;;;;8.20;1.48;;;17.30;97.30;;;;;;5038262;28;20235;-92
2021/06/21 02:06:41;;;;;;;8.68;1.17;;;17.30;97.30;;;;;;5052645;28;20057;-92
2021/06/21 02:09:08;;;;;;;8.05;1.38;;;17.30;97.40;;;;;;5053613;28;20033;-94
2021/06/21 02:11:34;;;;;;;9.35;1.02;;;17.30;97.30;;;;;;5040367;28;20071;-92
2021/06/21 02:14:02;;;;;;;7.55;1.52;;;17.40;97.30;;;;;;5051260;28;20024;-91
2021/06/21 02:16:28;;;;;;;6.90;1.38;;;17.30;97.30;;;;;;5051953;28;20373;-93
2021/06/21 02:18:54;;;;;;;8.80;1.00;;;17.40;97.40;;;;;;5052719;28;20021;-92
2021/06/21 02:21:21;;;;;;;6.22;1.42;;;17.40;97.40;;;;;;5051780;28;20056;-92
2021/06/21 02:23:48;;;;;;;4.97;1.35;;;17.40;97.30;;;;;;5034561;28;20029;-92
2021/06/21 02:26:18;;;;;;;6.40;1.30;;;17.40;97.40;;;;;;5043906;28;20017;-93
2021/06/21 02:28:44;;;;;;;4.75;1.10;;;17.40;97.40;;;;;;5045964;28;20025;-91
2021/06/21 02:31:10;;;;;;;5.72;1.40;;;17.40;97.30;;;;;;5041645;28;20048;-91
2021/06/21 02:33:36;;;;;;;6.90;1.13;;;17.40;97.20;;;;;;5037830;28;20103;-93
2021/06/21 02:36:03;;;;;;;4.03;1.20;;;17.40;97.10;;;;;;5045655;28;20057;-92
2021/06/21 02:38:28;;;;;;;5.63;1.17;;;17.30;97.10;;;;;;5039984;28;20389;-92
2021/06/21 02:40:54;;;;;;;9.88;1.55;;;17.30;97.20;;;;;;5037085;28;20025;-94
2021/06/21 02:43:20;;;;;;;8.20;1.30;;;17.30;97.20;;;;;;5048248;28;20064;-92
2021/06/21 02:45:45;;;;;;;5.32;1.27;;;17.30;97.10;;;;;;5047901;28;20021;-91
2021/06/21 02:48:11;;;;;;;10.00;1.40;;;17.30;97.10;;;;;;5033290;28;20033;-92
2021/06/21 02:50:45;;;;;;;5.05;1.23;;;17.30;97.20;;;;;;5035556;28;20026;-92
2021/06/21 02:53:35;;;;;;;10.57;1.65;;;17.30;97.30;;;;;;5047982;28;20062;-92
2021/06/21 02:56:16;;;;;;;4.78;1.10;;;17.30;97.30;;;;;;5051408;28;20094;-93
2021/06/21 02:58:44;;;;;;;7.68;1.25;;;17.30;97.30;;;;;;5051319;28;20117;-92
2021/06/21 03:01:12;;;;;;;9.73;1.38;;;17.20;97.50;;;;;;5048299;28;20075;-91
2021/06/21 03:03:40;;;;;;;6.88;1.20;;;17.30;97.40;;;;;;5056648;22;20330;-68
2021/06/21 03:06:08;;;;;;;6.55;1.33;;;17.20;97.30;;;;;;5036430;28;20431;-68
2021/06/21 03:08:37;;;;;;;6.50;1.42;;;17.20;97.20;;;;;;5039359;28;20014;-68
2021/06/21 03:11:03;;;;;;;8.25;1.25;;;17.20;97.20;;;;;;5050829;28;20488;-68
2021/06/21 03:13:29;;;;;;;9.13;1.40;;;17.10;97.10;;;;;;5051520;28;20033;-68
2021/06/21 03:15:57;;;;;;;8.35;1.50;;;17.10;97.10;;;;;;5049350;28;20104;-68
2021/06/21 03:18:23;;;;;;;5.60;1.30;;;17.10;97.10;;;;;;5039499;28;20017;-68
2021/06/21 03:20:57;;;;;;;7.68;1.38;;;17.00;97.10;;;;;;5039785;28;20025;-68
2021/06/21 03:23:28;;;;;;;8.13;1.13;;;17.00;97.20;;;;;;5032514;28;20101;-68
2021/06/21 03:25:56;;;;;;;11.52;1.70;;;17.00;97.30;;;;;;5042791;28;20337;-68
2021/06/21 03:28:22;;;;;;;6.35;1.45;;;17.00;97.30;;;;;;5039050;28;20020;-68
2021/06/21 03:31:02;;;;;;;7.15;1.30;;;17.00;97.30;;;;;;5051003;28;20033;-68
2021/06/21 03:33:28;;;;;;;4.63;1.23;;;17.00;97.30;;;;;;5043170;28;20135;-68
2021/06/21 03:35:54;;;;;;;8.68;1.30;;;17.00;97.30;;;;;;5050614;28;20076;-68
2021/06/21 03:38:23;;;;;;;16.95;1.80;;;17.00;97.30;;;;;;5034184;28;20026;-68
2021/06/21 03:40:50;;;;;;;6.78;1.52;;;17.00;97.30;;;;;;5049848;28;20025;-68
2021/06/21 03:43:22;;;;;;;6.85;1.30;;;17.00;97.30;;;;;;5040132;28;20029;-68
2021/06/21 03:45:49;;;;;;;12.48;1.85;;;17.00;97.40;;;;;;5039306;28;20025;-68
2021/06/21 03:48:15;;;;;;;9.43;1.65;;;17.00;97.40;;;;;;5044086;28;20036;-68
2021/06/21 03:50:41;;;;;;;9.73;1.48;;;17.00;97.40;;;;;;5040150;28;20026;-68
2021/06/21 03:53:07;;;;;;;6.30;1.33;;;17.00;97.40;;;;;;5031834;28;20048;-68
2021/06/21 03:55:33;;;;;;;9.57;1.65;;;17.00;97.30;;;;;;5040661;28;20026;-68
2021/06/21 03:57:59;;;;;;;9.82;2.10;;;17.00;97.30;;;;;;5030781;28;20027;-68
2021/06/21 04:00:28;;;;;;;5.93;1.52;;;17.00;97.30;;;;;;5048973;28;20021;-69
2021/06/21 04:02:54;;;;;;;6.78;1.38;;;17.00;97.30;;;;;;5040910;28;20033;-70
2021/06/21 04:05:20;;;;;;;9.30;1.80;;;17.00;97.30;;;;;;5036192;28;20022;-68
2021/06/21 04:07:47;;;;;;;6.70;1.20;;;17.00;97.30;;;;;;5037892;28;20047;-74
2021/06/21 04:10:16;;;;;;;5.43;1.40;;;17.00;97.30;;;;;;5046381;28;20057;-74
2021/06/21 04:12:44;;;;;;;8.10;1.63;;;17.00;97.40;;;;;;5047398;28;20021;-73
2021/06/21 04:15:11;;;;;;;10.00;1.88;;;17.00;97.40;;;;;;5049249;28;20021;-73
2021/06/21 04:17:38;;;;;;;6.88;1.17;;;17.00;97.30;;;;;;5046460;28;20504;-71
2021/06/21 04:20:05;;;;;;;8.60;1.65;;;16.90;97.40;;;;;;5041990;28;20516;-76
2021/06/21 04:22:31;;;;;;;10.77;2.10;;;17.00;97.40;;;;;;5041264;28;20478;-75
2021/06/21 04:24:57;;;;;;;9.00;1.50;;;17.00;97.40;;;;;;5048956;28;20108;-75
2021/06/21 04:27:22;;;;;;;9.55;1.50;;;17.00;97.40;;;;;;5050732;28;20381;-76
2021/06/21 04:29:48;;;;;;;13.45;1.80;;;17.00;97.30;;;;;;5042278;28;20033;-76
2021/06/21 04:32:13;;;;;;;8.75;1.70;;;17.00;97.30;;;;;;5038108;28;20017;-76
2021/06/21 04:34:39;;;;;;;16.60;2.17;;;17.00;97.40;;;;;;5040765;28;20020;-74
2021/06/21 04:37:05;;;;;;;7.82;1.50;;;17.10;97.40;;;;;;5041602;28;20112;-68
2021/06/21 04:39:31;;;;;;;8.13;1.80;;;17.20;97.60;;;;;;5041761;28;20021;-68
2021/06/21 04:41:56;;;;;;;8.25;1.83;;;17.20;97.50;;;;;;5049479;28;20560;-69
2021/06/21 04:44:22;;;;;;;10.45;1.92;;;17.20;97.60;;;;;;5041243;28;20032;-68
2021/06/21 04:46:48;;;;;;;5.57;1.15;;;17.30;97.70;;;;;;5035913;28;20048;-69
2021/06/21 04:49:14;;;;;;;8.60;1.70;;;17.40;97.80;;;;;;5038752;28;20112;-69
2021/06/21 04:51:41;;;;;;;5.85;1.30;;;17.50;97.80;;;;;;5034571;28;20021;-68
2021/06/21 04:54:07;;;;;;;10.20;1.67;;;17.50;97.80;;;;;;5040553;28;20550;-69
2021/06/21 04:56:37;;;;;;;7.65;1.30;;;17.60;97.80;;;;;;5038872;28;20034;-69
2021/06/21 04:59:04;;;;;;;10.15;1.80;;;17.60;97.70;;;;;;5034028;28;20122;-69
2021/06/21 05:01:29;;;;;;;9.55;4.10;;;17.60;97.50;;;;;;5039629;28;20507;-69
2021/06/21 05:03:56;;;;;;;5.15;1.70;;;17.60;97.40;;;;;;5037989;28;20069;-69
2021/06/21 05:06:22;;;;;;;2.90;1.05;;;17.60;97.40;;;;;;5030074;28;20025;-73
2021/06/21 05:08:48;;;;;;;7.07;1.10;;;17.60;97.40;;;;;;5040626;28;20564;-77
2021/06/21 05:11:14;;;;;;;8.25;1.80;;;17.70;97.40;;;;;;5048859;28;20029;-77
2021/06/21 05:13:40;;;;;;;6.70;1.67;;;17.70;97.30;;;;;;5040726;28;20021;-76
2021/06/21 05:16:05;;;;;;;7.57;2.00;;;17.80;97.20;;;;;;5045586;28;20469;-76
2021/06/21 05:18:31;;;;;;;4.95;1.58;;;17.80;97.10;;;;;;5034507;28;20049;-81
2021/06/21 05:20:57;;;;;;;9.80;1.75;;;17.90;97.10;;;;;;5044421;28;20436;-76
2021/06/21 05:23:22;;;;;;;10.05;2.00;;;18.00;97.10;;;;;;5030430;28;20021;-76
2021/06/21 05:25:48;;;;;;;5.50;1.50;;;18.10;97.10;;;;;;5034769;28;20440;-76
2021/06/21 05:28:13;;;;;;;4.93;1.10;;;18.10;97.00;;;;;;5040791;28;20033;-76
2021/06/21 05:30:39;;;;;;;11.88;1.60;;;18.20;96.90;;;;;;5064401;28;20021;-75
2021/06/21 05:33:05;;;;;;;6.95;1.35;;;18.20;96.80;;;;;;5048158;28;20481;-76
2021/06/21 05:35:30;;;;;;;9.15;1.75;;;18.20;96.80;;;;;;5042494;28;20103;-70
2021/06/21 05:37:56;;;;;;;10.45;2.15;;;18.20;96.60;;;;;;5048643;28;20101;-69
2021/06/21 05:40:22;;;;;;;8.23;1.77;;;18.20;96.60;;;;;;5038981;28;20401;-70
2021/06/21 05:42:47;;;;;;;8.63;1.77;;;18.20;96.50;;;;;;5048497;28;20681;-70
2021/06/21 05:45:15;;;;;;;8.60;1.50;;;18.30;96.50;;;;;;5042365;28;20025;-70
2021/06/21 05:47:41;;;;;;;9.27;1.98;;;18.30;96.50;;;;;;5041467;28;20036;-70
2021/06/21 05:50:07;;;;;;;7.97;1.60;;;18.40;96.50;;;;;;5036588;28;20025;-69
2021/06/21 05:52:33;;;;;;;10.82;1.50;;;18.50;96.60;;;;;;5038383;28;20101;-70
2021/06/21 05:55:01;;;;;;;13.30;1.80;;;18.60;96.70;;;;;;5034595;28;20100;-70
2021/06/21 05:57:28;;;;;;;8.05;1.60;;;18.80;96.60;;;;;;5045802;28;20021;-70
2021/06/21 05:59:54;;;;;;;8.55;1.65;;;18.90;96.60;;;;;;5054048;28;20029;-70
2021/06/21 06:02:20;;;;;;;11.43;1.90;;;19.00;96.50;;;;;;5044079;28;20036;-70
2021/06/21 06:04:46;;;;;;;4.68;1.40;;;19.00;96.20;;;;;;5048043;28;20095;-70
2021/06/21 06:07:11;;;;;;;9.40;1.40;;;19.10;96.10;;;;;;5046717;28;20509;-69
2021/06/21 06:09:37;;;;;;;8.45;1.63;;;19.20;96.20;;;;;;5043667;28;20036;-70
2021/06/21 06:12:03;;;;;;;8.52;1.30;;;19.30;96.10;;;;;;5052887;28;20021;-70
2021/06/21 06:14:29;;;;;;;9.45;1.70;;;19.30;95.80;;;;;;5048538;28;20102;-69
2021/06/21 06:16:55;;;;;;;8.18;1.60;;;19.30;95.80;;;;;;5048836;28;20098;-73
2021/06/21 06:19:21;;;;;;;9.50;1.50;;;19.30;95.60;;;;;;5050826;28;20029;-69
2021/06/21 06:21:47;;;;;;;10.68;1.60;;;19.40;95.50;;;;;;5047320;28;20425;-72
2021/06/21 06:24:13;;;;;;;6.55;1.60;;;19.40;95.60;;;;;;5039272;28;20524;-69
2021/06/21 06:26:43;;;;;;;9.82;1.30;;;19.60;95.70;;;;;;5050504;28;20068;-70
2021/06/21 06:29:14;;;;;;;10.32;1.92;;;19.70;95.30;;;;;;5054321;28;20020;-70
2021/06/21 06:31:46;;;;;;;5.57;2.05;;;19.80;94.90;;;;;;5048785;28;20564;-69
2021/06/21 06:34:13;;;;;;;11.63;1.77;;;19.90;94.70;;;;;;5042978;28;20033;-70
2021/06/21 06:36:38;;;;;;;7.80;1.52;;;20.00;95.10;;;;;;5051872;28;20071;-69
2021/06/21 06:39:05;;;;;;;7.05;1.58;;;20.20;95.00;;;;;;5044534;28;20029;-70
2021/06/21 06:41:31;;;;;;;8.13;1.60;;;20.30;94.60;;;;;;5044240;28;20039;-70
2021/06/21 06:43:56;;;;;;;6.65;1.90;;;20.40;94.50;;;;;;5046871;28;20022;-70
2021/06/21 06:46:22;;;;;;;3.38;1.40;;;20.60;94.20;;;;;;5037028;28;20018;-70
2021/06/21 06:48:48;;;;;;;7.40;1.20;;;20.60;93.80;;;;;;5038043;28;20036;-70
2021/06/21 06:51:14;;;;;;;6.55;1.40;;;20.80;94.10;;;;;;5031175;28;20123;-69
2021/06/21 06:54:24;;;;;;;7.57;1.63;;;20.90;93.90;;;;;;5044332;28;20017;-69
2021/06/21 06:59:13;;;;;;;9.52;1.55;;;21.30;93.40;;;;;;5048492;28;20081;-70
2021/06/21 07:01:39;;;;;;;9.48;1.30;;;21.60;93.30;;;;;;5052472;28;20108;-70
2021/06/21 07:04:04;;;;;;;5.07;1.50;;;21.90;92.90;;;;;;5043153;28;20048;-70
2021/06/21 07:06:31;;;;;;;5.95;1.40;;;22.10;92.50;;;;;;5042052;28;20025;-70
2021/06/21 07:08:57;;;;;;;5.57;1.35;;;22.10;91.80;;;;;;5052348;28;20037;-70
2021/06/21 07:11:23;;;;;;;6.55;1.20;;;22.20;91.50;;;;;;5052458;28;20071;-70
2021/06/21 07:13:48;;;;;;;7.90;2.25;;;22.20;91.30;;;;;;5051799;28;20033;-70
2021/06/21 07:16:14;;;;;;;6.28;1.23;;;22.20;91.00;;;;;;5034726;28;20056;-70
2021/06/21 07:18:40;;;;;;;7.28;1.30;;;22.30;91.10;;;;;;5032380;28;20026;-70
2021/06/21 07:21:06;;;;;;;3.65;1.02;;;22.50;90.80;;;;;;5037505;28;20020;-70
2021/06/21 07:23:31;;;;;;;7.85;1.10;;;22.60;90.40;;;;;;5051373;28;20041;-70
2021/06/21 07:25:59;;;;;;;5.78;1.48;;;22.70;90.30;;;;;;5040228;28;20385;-70
2021/06/21 07:28:25;;;;;;;5.68;1.50;;;22.90;90.00;;;;;;5032432;28;20025;-71
2021/06/21 07:30:51;;;;;;;2.95;1.15;;;23.10;90.10;;;;;;5042841;28;20044;-70
2021/06/21 07:33:16;;;;;;;3.30;1.15;;;23.30;89.30;;;;;;5050842;28;20025;-70
2021/06/21 07:35:42;;;;;;;2.47;1.13;;;23.30;88.10;;;;;;5039246;28;20504;-70
2021/06/21 07:38:09;;;;;;;8.38;1.77;;;23.40;87.80;;;;;;5051650;28;20090;-70
2021/06/21 07:40:38;;;;;;;7.57;1.20;;;23.50;88.10;;;;;;5048310;28;20025;-70
2021/06/21 07:43:05;;;;;;;5.40;1.52;;;23.60;87.00;;;;;;5035665;28;20496;-70
2021/06/21 07:45:31;;;;;;;10.35;1.67;;;23.70;87.00;;;;;;5036680;28;20393;-70
2021/06/21 07:48:00;;;;;;;10.25;1.33;;;23.90;84.90;;;;;;5051680;28;20025;-70
2021/06/21 07:50:27;;;;;;;4.50;1.20;;;23.90;84.90;;;;;;5051086;28;20029;-70
2021/06/21 07:52:54;;;;;;;10.05;1.38;;;24.10;85.30;;;;;;5045989;28;20024;-70
2021/06/21 07:55:24;;;;;;;13.10;7.45;;;24.50;84.10;;;;;;5051942;28;20037;-70
2021/06/21 07:57:50;;;;;;;7.40;3.00;;;24.60;82.90;;;;;;5049025;28;20025;-70
2021/06/21 08:00:19;;;;;;;5.88;1.25;;;24.70;82.30;;;;;;5051141;28;20037;-70
2021/06/21 08:02:45;;;;;;;4.32;0.98;;;24.80;82.60;;;;;;5050080;28;20029;-70
2021/06/21 08:05:11;;;;;;;6.55;0.90;;;25.00;81.00;;;;;;5033563;28;20474;-70
2021/06/21 08:07:36;;;;;;;2.72;1.13;;;25.10;80.10;;;;;;5031169;28;20108;-70
2021/06/21 08:10:02;;;;;;;6.70;0.93;;;25.10;79.20;;;;;;5031603;28;20029;-70
2021/06/21 08:12:28;;;;;;;7.35;1.48;;;25.30;79.40;;;;;;5045604;28;20013;-70
2021/06/21 08:14:53;;;;;;;5.97;1.38;;;25.60;78.50;;;;;;5035656;28;20032;-70
2021/06/21 08:17:19;;;;;;;7.80;1.17;;;25.80;77.60;;;;;;5050706;28;20093;-70
2021/06/21 08:19:45;;;;;;;6.95;1.40;;;25.80;77.10;;;;;;5050905;28;20029;-70
2021/06/21 08:22:11;;;;;;;5.03;1.20;;;26.10;77.80;;;;;;5034999;28;20703;-70
2021/06/21 08:24:40;;;;;;;6.00;1.17;;;26.50;76.80;;;;;;5030460;28;20029;-70
2021/06/21 08:27:06;;;;;;;3.95;1.10;;;26.80;75.60;;;;;;5038541;28;20056;-70
2021/06/21 08:29:32;;;;;;;4.50;0.90;;;26.70;73.70;;;;;;5050251;28;20052;-70
2021/06/21 08:31:57;;;;;;;7.95;1.10;;;26.80;74.20;;;;;;5051048;28;20072;-70
2021/06/21 08:34:23;;;;;;;4.68;1.00;;;26.90;73.90;;;;;;5049076;28;20029;-70
2021/06/21 08:36:49;;;;;;;4.43;1.00;;;27.30;73.60;;;;;;5036699;28;20501;-70
2021/06/21 08:39:14;;;;;;;8.23;1.73;;;27.70;72.20;;;;;;5039695;28;20035;-70
2021/06/21 08:41:40;;;;;;;6.28;0.98;;;28.20;71.10;;;;;;5050385;28;20036;-70
2021/06/21 08:44:05;;;;;;;4.07;1.30;;;28.40;69.60;;;;;;5044579;28;20126;-70
2021/06/21 08:46:31;;;;;;;2.75;1.10;;;28.70;69.20;;;;;;5039604;28;20424;-70
2021/06/21 08:49:01;;;;;;;4.18;0.98;;;29.00;68.00;;;;;;5050545;28;20025;-70
2021/06/21 08:51:27;;;;;;;5.47;1.40;;;29.40;68.40;;;;;;5050856;28;20027;-70
2021/06/21 08:53:52;;;;;;;6.07;1.10;;;29.80;66.70;;;;;;5044543;28;20078;-71
2021/06/21 08:56:18;;;;;;;6.03;0.80;;;30.20;64.30;;;;;;5050500;28;20095;-70
2021/06/21 08:58:44;;;;;;;2.65;0.88;;;30.50;63.80;;;;;;5046140;28;20428;-71
2021/06/21 09:01:09;;;;;;;2.65;1.35;;;30.90;62.90;;;;;;5040241;28;20134;-71
2021/06/21 09:03:36;;;;;;;3.28;0.82;;;31.50;61.40;;;;;;5057739;22;20373;-67
2021/06/21 09:06:03;;;;;;;6.65;1.10;;;32.00;59.60;;;;;;5046652;28;20469;-67
2021/06/21 09:08:28;;;;;;;5.57;1.00;;;32.50;58.00;;;;;;5047600;28;20032;-71
2021/06/21 09:10:54;;;;;;;4.78;1.10;;;33.10;57.40;;;;;;5030491;28;20029;-68
2021/06/21 09:13:20;;;;;;;4.72;1.15;;;33.50;55.70;;;;;;5030984;28;20052;-68
2021/06/21 09:15:52;;;;;;;6.82;0.93;;;33.90;55.10;;;;;;5016207;28;20025;-68
2021/06/21 09:18:39;;;;;;;3.95;0.90;;;32.50;55.10;;;;;;5049944;28;20067;-67
2021/06/21 09:21:26;;;;;;;3.50;0.93;;;32.80;56.10;;;;;;5050578;28;20029;-68
2021/06/21 09:23:54;;;;;;;5.07;1.30;;;33.40;56.40;;;;;;5047760;28;20025;-68
2021/06/21 09:26:27;;;;;;;3.85;0.80;;;33.90;53.30;;;;;;5050077;28;20025;-69
2021/06/21 09:28:53;;;;;;;3.08;0.98;;;33.80;51.40;;;;;;5034451;28;20404;-70
2021/06/21 09:31:21;;;;;;;3.35;1.20;;;33.50;50.70;;;;;;5040171;28;20016;-70
2021/06/21 09:33:47;;;;;;;3.13;1.00;;;33.30;51.30;;;;;;5048870;28;20037;-68
2021/06/21 09:36:30;;;;;;;1.73;0.88;;;33.60;51.20;;;;;;5032909;28;20129;-68
2021/06/21 09:39:28;;;;;;;4.88;0.82;;;33.80;51.00;;;;;;5051801;28;20032;-68
2021/06/21 09:42:03;;;;;;;2.83;0.65;;;34.30;51.10;;;;;;5050382;28;20048;-68
2021/06/21 09:44:55;;;;;;;4.55;1.00;;;34.60;49.20;;;;;;5043932;28;20051;-68
2021/06/21 09:47:39;;;;;;;2.00;0.90;;;34.70;49.00;;;;;;5053079;28;20088;-68
2021/06/21 09:50:26;;;;;;;4.80;1.20;;;34.90;49.70;;;;;;5053815;28;20021;-68
2021/06/21 09:53:00;;;;;;;2.92;0.88;;;32.90;51.20;;;;;;5050589;28;20021;-71
2021/06/21 09:55:30;;;;;;;5.97;1.27;;;32.50;52.10;;;;;;5032602;28;20030;-72
2021/06/21 09:58:18;;;;;;;4.75;1.30;;;32.80;51.80;;;;;;5033648;28;20508;-69
2021/06/21 10:00:50;;;;;;;5.63;1.23;;;32.90;51.90;;;;;;5016887;28;20033;-72
2021/06/21 10:03:27;;;;;;;6.32;1.10;;;32.90;51.90;;;;;;5052530;28;20029;-69
2021/06/21 10:06:13;;;;;;;2.35;0.85;;;32.80;51.10;;;;;;5032519;28;20059;-70
2021/06/21 10:08:47;;;;;;;4.20;0.90;;;32.30;52.80;;;;;;5033751;28;20022;-68
2021/06/21 10:11:43;;;;;;;4.45;1.20;;;31.50;51.80;;;;;;5046522;28;20033;-69
2021/06/21 10:14:17;;;;;;;5.18;0.93;;;31.20;53.20;;;;;;5052510;28;20495;-69
2021/06/21 10:16:46;;;;;;;5.47;1.30;;;31.10;54.10;;;;;;5028217;28;20037;-68
2021/06/21 10:19:12;;;;;;;3.65;1.10;;;30.90;54.10;;;;;;5033439;28;20025;-68
2021/06/21 10:21:43;;;;;;;3.10;1.05;;;30.90;53.60;;;;;;5015615;28;20469;-68
2021/06/21 10:24:09;;;;;;;;;;;30.70;54.10;;;;;;5020158;28;20036;-69
2021/06/21 10:26:38;;;;;;;4.25;1.00;;;30.70;57.90;;;;;;5047989;28;19905;-69
2021/06/21 10:29:04;;;;;;;4.88;1.00;;;30.60;55.70;;;;;;5040924;28;20473;-68
2021/06/21 10:31:31;;;;;;;4.75;1.10;;;30.50;55.00;;;;;;5044117;28;20052;-67
2021/06/21 10:34:02;;;;;;;2.05;0.93;;;30.20;54.20;;;;;;5045535;28;20022;-72
2021/06/21 10:36:52;;;;;;;4.72;0.98;;;30.00;54.80;;;;;;5052026;28;20025;-68
2021/06/21 10:39:23;;;;;;;3.63;0.80;;;30.00;55.20;;;;;;5050650;28;20056;-67
2021/06/21 10:42:04;;;;;;;4.80;0.88;;;29.80;54.80;;;;;;5034979;28;20029;-69
2021/06/21 10:44:47;;;;;;;2.53;0.75;;;29.60;55.00;;;;;;5052238;28;20021;-68
2021/06/21 10:47:39;;;;;;;2.50;0.88;;;29.30;54.90;;;;;;5052918;28;20499;-69
2021/06/21 10:50:05;;;;;;;;;;;29.10;56.10;;;;;;5053457;28;20655;-68
2021/06/21 10:52:36;;;;;;;4.68;1.00;;;29.00;57.70;;;;;;5052644;28;19940;-68
2021/06/21 10:55:20;;;;;;;4.43;0.90;;;28.90;56.90;;;;;;5048502;28;20062;-68
2021/06/21 10:57:46;;;;;;;3.42;1.05;;;28.70;57.00;;;;;;5053832;28;20104;-69
2021/06/21 11:00:14;;;;;;;3.90;0.95;;;28.50;56.90;;;;;;5039546;28;20029;-68
2021/06/21 11:02:40;;;;;;;5.57;0.70;;;28.30;56.00;;;;;;5034895;28;20026;-70
2021/06/21 11:05:06;;;;;;;8.20;1.10;;;28.10;56.70;;;;;;5035779;28;20076;-73
2021/06/21 11:07:32;;;;;;;5.43;0.98;;;28.00;58.20;;;;;;5021147;28;20104;-70
2021/06/21 11:09:58;;;;;;;3.88;1.00;;;28.10;57.20;;;;;;5034816;28;20029;-71
2021/06/21 11:12:30;;;;;;;4.40;1.48;;;28.10;56.70;;;;;;5034998;28;20436;-68
2021/06/21 11:17:32;;;;;;;3.65;0.90;;;27.90;56.70;;;;;;5050604;28;20285;-68
2021/06/21 11:20:17;;;;;;;5.15;0.90;;;27.90;57.70;;;;;;5034296;28;20071;-68
2021/06/21 11:22:46;;;;;;;2.47;0.80;;;28.00;57.80;;;;;;5038144;28;20040;-69
2021/06/21 11:25:40;;;;;;;3.42;0.93;;;27.90;56.80;;;;;;5046488;28;20489;-68
2021/06/21 11:28:05;;;;;;;7.05;1.00;;;27.90;56.30;;;;;;5034416;28;20033;-68
2021/06/21 11:30:31;;;;;;;5.72;1.20;;;27.90;57.10;;;;;;5034522;28;20477;-69
2021/06/21 11:33:14;;;;;;;8.20;1.00;;;27.90;56.70;;;;;;5039229;28;20441;-72
2021/06/21 11:36:03;;;;;;;5.63;1.17;;;28.00;57.60;;;;;;5031111;28;20014;-68
2021/06/21 11:38:36;;;;;;;5.80;0.90;;;28.10;57.70;;;;;;5034499;28;20014;-72
2021/06/21 11:41:20;;;;;;;3.38;1.10;;;28.10;57.90;;;;;;5033671;28;20119;-69
2021/06/21 11:43:58;;;;;;;3.15;1.15;;;28.10;56.90;;;;;;5032320;28;20029;-69
2021/06/21 11:46:45;;;;;;;4.47;1.00;;;28.00;58.00;;;;;;5014358;28;20041;-68
2021/06/21 11:49:18;;;;;;;2.45;1.00;;;28.10;58.80;;;;;;5031927;28;20500;-71
2021/06/21 11:51:54;;;;;;;1.15;0.60;;;28.20;57.70;;;;;;5031923;28;20501;-70
2021/06/21 11:54:20;;;;;;;2.83;1.15;;;28.30;58.10;;;;;;5043819;28;20028;-69
2021/06/21 11:56:54;;;;;;;2.53;0.75;;;28.30;57.60;;;;;;5032591;28;20045;-69
2021/06/21 11:59:37;;;;;;;2.28;0.85;;;28.20;57.80;;;;;;5040441;28;20067;-69
2021/06/21 12:02:07;;;;;;;5.03;1.08;;;28.10;57.40;;;;;;5039046;28;20197;-69
2021/06/21 12:04:33;;;;;;;2.67;1.08;;;28.10;57.70;;;;;;5035948;28;20067;-69
2021/06/21 12:06:58;;;;;;;5.38;1.40;;;28.10;57.70;;;;;;5050758;28;20434;-69
2021/06/21 12:09:24;;;;;;;3.65;1.00;;;28.30;57.80;;;;;;5051443;28;20111;-70
2021/06/21 12:11:53;;;;;;;6.10;1.00;;;28.50;58.20;;;;;;5033530;28;20121;-69
2021/06/21 12:14:27;;;;;;;4.40;0.98;;;28.60;58.10;;;;;;5049654;28;20028;-68
2021/06/21 12:17:07;;;;;;;6.43;1.10;;;28.60;57.30;;;;;;5049406;28;20025;-68
2021/06/21 12:19:32;;;;;;;4.50;1.13;;;28.70;57.10;;;;;;5050934;28;20020;-70
2021/06/21 12:21:58;;;;;;;4.60;1.67;;;28.70;56.70;;;;;;5033395;28;20056;-72
2021/06/21 12:24:26;;;;;;;3.35;1.00;;;28.70;57.20;;;;;;5050066;28;20095;-68
2021/06/21 12:26:58;;;;;;;2.75;0.88;;;28.70;56.40;;;;;;5050680;28;20094;-68
2021/06/21 12:29:25;;;;;;;4.88;1.55;;;28.70;56.40;;;;;;5049329;28;20032;-69
2021/06/21 12:31:53;;;;;;;3.17;0.70;;;28.70;56.00;;;;;;5050479;28;20032;-69
2021/06/21 12:34:38;;;;;;;4.88;0.88;;;28.70;56.70;;;;;;5040423;28;20053;-70
2021/06/21 12:37:18;;;;;;;4.32;1.20;;;28.80;56.50;;;;;;5030978;28;20112;-68
2021/06/21 12:39:45;;;;;;;4.65;1.40;;;29.00;55.70;;;;;;5043156;28;20021;-68
2021/06/21 12:42:13;;;;;;;6.07;1.08;;;28.90;56.00;;;;;;5042544;28;20024;-69
2021/06/21 12:44:39;;;;;;;2.22;1.00;;;28.90;55.80;;;;;;5048730;28;20029;-69
2021/06/21 12:47:18;;;;;;;5.15;0.80;;;28.70;55.50;;;;;;5044401;28;20029;-69
2021/06/21 12:49:45;;;;;;;2.65;1.00;;;28.70;56.20;;;;;;5030894;28;20025;-68
2021/06/21 12:52:11;;;;;;;4.40;1.00;;;28.70;55.80;;;;;;5030979;28;20055;-68
2021/06/21 12:54:37;;;;;;;6.00;1.50;;;28.70;56.10;;;;;;5017655;28;20061;-71
2021/06/21 12:57:04;;;;;;;1.70;0.90;;;28.70;56.30;;;;;;5031951;28;20060;-68
2021/06/21 12:59:32;;;;;;;6.32;0.90;;;28.70;56.10;;;;;;5044017;28;20104;-70
2021/06/21 13:02:04;;;;;;;1.27;0.82;;;28.70;55.40;;;;;;5049412;28;20381;-68